sensor_id;sensor_type;location;lat;lon;timestamp;P1;durP1;ratioP1;P2;durP2;ratioP2
11588;SDS011;5850;51.360;12.362;2022-08-05T00:01:30;5.33;;;3.50;;
11588;SDS011;5850;51.360;12.362;2022-08-05T00:04:01;4.00;;;3.40;;
11588;SDS011;5850;51.360;12.362;2022-08-05T00:06:33;3.50;;;3.20;;
11588;SDS011;5850;51.360;12.362;2022-08-05T00:09:03;3.47;;;3.17;;
11588;SDS011;5850;51.360;12.362;2022-08-05T00:11:39;4.37;;;4.00;;
11588;SDS011;5850;51.360;12.362;2022-08-05T00:14:20;7.27;;;4.27;;
11588;SDS011;5850;51.360;12.362;2022-08-05T00:16:53;7.17;;;3.50;;
11588;SDS011;5850;51.360;12.362;2022-08-05T00:19:21;3.60;;;3.30;;
11588;SDS011;5850;51.360;12.362;2022-08-05T00:22:05;4.30;;;3.20;;
11588;SDS011;5850;51.360;12.362;2022-08-05T00:24:36;3.60;;;3.10;;
11588;SDS011;5850;51.360;12.362;2022-08-05T00:27:07;5.10;;;3.30;;
11588;SDS011;5850;51.360;12.362;2022-08-05T00:29:41;4.00;;;3.50;;
11588;SDS011;5850;51.360;12.362;2022-08-05T00:32:10;3.13;;;2.83;;
11588;SDS011;5850;51.360;12.362;2022-08-05T00:34:41;3.20;;;3.00;;
11588;SDS011;5850;51.360;12.362;2022-08-05T00:37:31;3.17;;;2.90;;
11588;SDS011;5850;51.360;12.362;2022-08-05T00:40:19;3.80;;;3.47;;
11588;SDS011;5850;51.360;12.362;2022-08-05T00:42:54;4.87;;;3.10;;
11588;SDS011;5850;51.360;12.362;2022-08-05T00:45:27;5.87;;;3.50;;
11588;SDS011;5850;51.360;12.362;2022-08-05T00:48:19;5.90;;;2.90;;
11588;SDS011;5850;51.360;12.362;2022-08-05T00:50:56;2.87;;;2.67;;
11588;SDS011;5850;51.360;12.362;2022-08-05T00:53:33;3.23;;;2.80;;
11588;SDS011;5850;51.360;12.362;2022-08-05T00:56:22;3.10;;;2.90;;
11588;SDS011;5850;51.360;12.362;2022-08-05T00:58:52;4.57;;;2.80;;
11588;SDS011;5850;51.360;12.362;2022-08-05T01:01:21;5.50;;;2.93;;
11588;SDS011;5850;51.360;12.362;2022-08-05T01:04:10;7.13;;;3.17;;
11588;SDS011;5850;51.360;12.362;2022-08-05T01:06:41;6.30;;;3.00;;
11588;SDS011;5850;51.360;12.362;2022-08-05T01:09:14;3.20;;;2.90;;
11588;SDS011;5850;51.360;12.362;2022-08-05T01:11:46;3.53;;;3.00;;
11588;SDS011;5850;51.360;12.362;2022-08-05T01:14:36;6.23;;;3.60;;
11588;SDS011;5850;51.360;12.362;2022-08-05T01:17:19;4.40;;;3.50;;
11588;SDS011;5850;51.360;12.362;2022-08-05T01:29:02;12.87;;;4.53;;
11588;SDS011;5850;51.360;12.362;2022-08-05T01:34:21;10.37;;;3.70;;
11588;SDS011;5850;51.360;12.362;2022-08-05T01:36:53;4.93;;;3.00;;
11588;SDS011;5850;51.360;12.362;2022-08-05T01:39:30;7.97;;;3.30;;
11588;SDS011;5850;51.360;12.362;2022-08-05T01:42:12;6.37;;;3.57;;
11588;SDS011;5850;51.360;12.362;2022-08-05T01:44:43;5.20;;;3.27;;
11588;SDS011;5850;51.360;12.362;2022-08-05T01:47:20;8.00;;;3.47;;
11588;SDS011;5850;51.360;12.362;2022-08-05T01:50:05;4.27;;;3.20;;
11588;SDS011;5850;51.360;12.362;2022-08-05T01:52:42;4.77;;;3.40;;
11588;SDS011;5850;51.360;12.362;2022-08-05T01:55:16;5.03;;;3.33;;
11588;SDS011;5850;51.360;12.362;2022-08-05T01:57:47;7.23;;;3.47;;
11588;SDS011;5850;51.360;12.362;2022-08-05T02:00:38;5.17;;;3.27;;
11588;SDS011;5850;51.360;12.362;2022-08-05T02:03:15;5.67;;;3.90;;
11588;SDS011;5850;51.360;12.362;2022-08-05T02:05:59;4.90;;;3.60;;
11588;SDS011;5850;51.360;12.362;2022-08-05T02:08:51;6.77;;;3.40;;
11588;SDS011;5850;51.360;12.362;2022-08-05T02:11:24;5.43;;;3.13;;
11588;SDS011;5850;51.360;12.362;2022-08-05T02:14:08;5.90;;;3.53;;
11588;SDS011;5850;51.360;12.362;2022-08-05T02:16:54;6.23;;;3.57;;
11588;SDS011;5850;51.360;12.362;2022-08-05T02:19:33;6.40;;;2.90;;
11588;SDS011;5850;51.360;12.362;2022-08-05T02:22:25;5.50;;;3.53;;
11588;SDS011;5850;51.360;12.362;2022-08-05T02:25:02;6.00;;;3.50;;
11588;SDS011;5850;51.360;12.362;2022-08-05T02:27:37;5.63;;;3.00;;
11588;SDS011;5850;51.360;12.362;2022-08-05T02:30:26;3.90;;;3.50;;
11588;SDS011;5850;51.360;12.362;2022-08-05T02:33:17;4.60;;;3.03;;
11588;SDS011;5850;51.360;12.362;2022-08-05T02:36:00;4.33;;;3.47;;
11588;SDS011;5850;51.360;12.362;2022-08-05T02:38:34;5.07;;;3.60;;
11588;SDS011;5850;51.360;12.362;2022-08-05T02:41:04;6.33;;;3.40;;
11588;SDS011;5850;51.360;12.362;2022-08-05T02:43:43;5.80;;;3.60;;
11588;SDS011;5850;51.360;12.362;2022-08-05T02:46:34;4.27;;;3.40;;
11588;SDS011;5850;51.360;12.362;2022-08-05T02:49:25;3.50;;;3.13;;
11588;SDS011;5850;51.360;12.362;2022-08-05T02:52:02;8.20;;;3.77;;
11588;SDS011;5850;51.360;12.362;2022-08-05T02:54:38;4.47;;;3.20;;
11588;SDS011;5850;51.360;12.362;2022-08-05T02:57:17;4.90;;;3.13;;
11588;SDS011;5850;51.360;12.362;2022-08-05T03:00:07;5.23;;;3.70;;
11588;SDS011;5850;51.360;12.362;2022-08-05T03:02:40;4.83;;;3.10;;
11588;SDS011;5850;51.360;12.362;2022-08-05T03:05:11;7.13;;;3.90;;
11588;SDS011;5850;51.360;12.362;2022-08-05T03:07:41;5.37;;;3.53;;
11588;SDS011;5850;51.360;12.362;2022-08-05T03:10:30;6.90;;;3.37;;
11588;SDS011;5850;51.360;12.362;2022-08-05T03:12:58;6.67;;;3.07;;
11588;SDS011;5850;51.360;12.362;2022-08-05T03:15:26;3.47;;;3.17;;
11588;SDS011;5850;51.360;12.362;2022-08-05T03:17:54;4.77;;;4.13;;
11588;SDS011;5850;51.360;12.362;2022-08-05T03:20:24;3.90;;;3.47;;
11588;SDS011;5850;51.360;12.362;2022-08-05T03:22:53;3.57;;;3.23;;
11588;SDS011;5850;51.360;12.362;2022-08-05T03:25:23;3.43;;;3.13;;
11588;SDS011;5850;51.360;12.362;2022-08-05T03:28:12;7.43;;;4.10;;
11588;SDS011;5850;51.360;12.362;2022-08-05T03:30:45;4.57;;;3.20;;
11588;SDS011;5850;51.360;12.362;2022-08-05T03:33:14;5.67;;;3.20;;
11588;SDS011;5850;51.360;12.362;2022-08-05T03:35:44;3.00;;;2.77;;
11588;SDS011;5850;51.360;12.362;2022-08-05T03:38:15;5.27;;;3.77;;
11588;SDS011;5850;51.360;12.362;2022-08-05T03:40:58;6.50;;;2.93;;
11588;SDS011;5850;51.360;12.362;2022-08-05T03:43:33;4.33;;;3.67;;
11588;SDS011;5850;51.360;12.362;2022-08-05T03:46:22;4.10;;;3.10;;
11588;SDS011;5850;51.360;12.362;2022-08-05T03:48:55;5.97;;;3.63;;
11588;SDS011;5850;51.360;12.362;2022-08-05T03:51:27;5.27;;;3.43;;
11588;SDS011;5850;51.360;12.362;2022-08-05T03:55:03;3.90;;;3.50;;
11588;SDS011;5850;51.360;12.362;2022-08-05T03:57:41;4.00;;;3.60;;
11588;SDS011;5850;51.360;12.362;2022-08-05T04:00:12;8.73;;;3.60;;
11588;SDS011;5850;51.360;12.362;2022-08-05T04:02:45;3.47;;;3.17;;
11588;SDS011;5850;51.360;12.362;2022-08-05T04:05:25;5.03;;;3.23;;
11588;SDS011;5850;51.360;12.362;2022-08-05T04:08:00;4.93;;;3.20;;
11588;SDS011;5850;51.360;12.362;2022-08-05T04:10:50;4.23;;;3.50;;
11588;SDS011;5850;51.360;12.362;2022-08-05T04:13:19;3.93;;;3.17;;
11588;SDS011;5850;51.360;12.362;2022-08-05T04:16:11;5.50;;;3.77;;
11588;SDS011;5850;51.360;12.362;2022-08-05T04:18:49;5.37;;;3.60;;
11588;SDS011;5850;51.360;12.362;2022-08-05T04:21:19;3.70;;;3.40;;
11588;SDS011;5850;51.360;12.362;2022-08-05T04:24:08;4.17;;;3.73;;
11588;SDS011;5850;51.360;12.362;2022-08-05T04:26:47;5.53;;;3.17;;
11588;SDS011;5850;51.360;12.362;2022-08-05T04:29:16;5.30;;;3.40;;
11588;SDS011;5850;51.360;12.362;2022-08-05T04:31:45;5.97;;;3.40;;
11588;SDS011;5850;51.360;12.362;2022-08-05T04:34:14;4.67;;;3.20;;
11588;SDS011;5850;51.360;12.362;2022-08-05T04:36:59;5.37;;;3.03;;
11588;SDS011;5850;51.360;12.362;2022-08-05T04:39:28;3.83;;;3.37;;
11588;SDS011;5850;51.360;12.362;2022-08-05T04:42:00;3.90;;;2.93;;
11588;SDS011;5850;51.360;12.362;2022-08-05T04:44:29;4.67;;;3.00;;
11588;SDS011;5850;51.360;12.362;2022-08-05T04:46:57;7.67;;;3.73;;
11588;SDS011;5850;51.360;12.362;2022-08-05T04:49:35;6.63;;;3.17;;
11588;SDS011;5850;51.360;12.362;2022-08-05T04:52:25;7.20;;;3.53;;
11588;SDS011;5850;51.360;12.362;2022-08-05T04:54:54;5.87;;;3.43;;
11588;SDS011;5850;51.360;12.362;2022-08-05T04:57:24;6.43;;;3.47;;
11588;SDS011;5850;51.360;12.362;2022-08-05T04:59:54;4.83;;;3.57;;
11588;SDS011;5850;51.360;12.362;2022-08-05T05:02:24;4.33;;;3.07;;
11588;SDS011;5850;51.360;12.362;2022-08-05T05:05:08;8.03;;;4.30;;
11588;SDS011;5850;51.360;12.362;2022-08-05T05:07:52;5.50;;;3.10;;
11588;SDS011;5850;51.360;12.362;2022-08-05T05:10:27;10.10;;;3.37;;
11588;SDS011;5850;51.360;12.362;2022-08-05T05:13:00;5.70;;;3.07;;
11588;SDS011;5850;51.360;12.362;2022-08-05T05:15:29;8.00;;;3.23;;
11588;SDS011;5850;51.360;12.362;2022-08-05T05:18:18;3.77;;;3.20;;
11588;SDS011;5850;51.360;12.362;2022-08-05T05:20:56;8.03;;;3.87;;
11588;SDS011;5850;51.360;12.362;2022-08-05T05:23:25;7.23;;;3.50;;
11588;SDS011;5850;51.360;12.362;2022-08-05T05:26:13;7.30;;;3.70;;
11588;SDS011;5850;51.360;12.362;2022-08-05T05:28:42;5.17;;;2.90;;
11588;SDS011;5850;51.360;12.362;2022-08-05T05:31:11;4.43;;;3.60;;
11588;SDS011;5850;51.360;12.362;2022-08-05T05:33:39;4.43;;;3.23;;
11588;SDS011;5850;51.360;12.362;2022-08-05T05:36:25;8.27;;;3.60;;
11588;SDS011;5850;51.360;12.362;2022-08-05T05:38:55;16.87;;;4.50;;
11588;SDS011;5850;51.360;12.362;2022-08-05T05:41:24;7.50;;;3.70;;
11588;SDS011;5850;51.360;12.362;2022-08-05T05:44:06;6.57;;;4.17;;
11588;SDS011;5850;51.360;12.362;2022-08-05T05:46:56;7.93;;;3.40;;
11588;SDS011;5850;51.360;12.362;2022-08-05T05:49:29;6.03;;;3.80;;
11588;SDS011;5850;51.360;12.362;2022-08-05T05:51:58;5.47;;;4.17;;
11588;SDS011;5850;51.360;12.362;2022-08-05T05:54:32;6.83;;;3.83;;
11588;SDS011;5850;51.360;12.362;2022-08-05T05:57:16;7.10;;;4.80;;
11588;SDS011;5850;51.360;12.362;2022-08-05T05:59:45;4.37;;;3.00;;
11588;SDS011;5850;51.360;12.362;2022-08-05T06:02:14;6.93;;;3.87;;
11588;SDS011;5850;51.360;12.362;2022-08-05T06:05:02;6.27;;;3.27;;
11588;SDS011;5850;51.360;12.362;2022-08-05T06:07:42;7.60;;;3.60;;
11588;SDS011;5850;51.360;12.362;2022-08-05T06:10:26;6.77;;;3.50;;
11588;SDS011;5850;51.360;12.362;2022-08-05T06:13:09;5.33;;;3.33;;
11588;SDS011;5850;51.360;12.362;2022-08-05T06:15:38;4.83;;;3.67;;
11588;SDS011;5850;51.360;12.362;2022-08-05T06:18:26;4.30;;;3.30;;
11588;SDS011;5850;51.360;12.362;2022-08-05T06:20:56;7.30;;;3.23;;
11588;SDS011;5850;51.360;12.362;2022-08-05T06:23:25;3.77;;;2.57;;
11588;SDS011;5850;51.360;12.362;2022-08-05T06:26:09;4.73;;;2.70;;
11588;SDS011;5850;51.360;12.362;2022-08-05T06:28:49;4.47;;;3.43;;
11588;SDS011;5850;51.360;12.362;2022-08-05T06:31:17;4.77;;;3.33;;
11588;SDS011;5850;51.360;12.362;2022-08-05T06:33:47;8.00;;;3.13;;
11588;SDS011;5850;51.360;12.362;2022-08-05T06:36:33;4.37;;;3.20;;
11588;SDS011;5850;51.360;12.362;2022-08-05T06:39:22;5.33;;;3.23;;
11588;SDS011;5850;51.360;12.362;2022-08-05T06:41:54;6.53;;;3.40;;
11588;SDS011;5850;51.360;12.362;2022-08-05T06:44:29;5.07;;;3.10;;
11588;SDS011;5850;51.360;12.362;2022-08-05T06:46:57;5.83;;;3.37;;
11588;SDS011;5850;51.360;12.362;2022-08-05T06:49:28;5.07;;;3.33;;
11588;SDS011;5850;51.360;12.362;2022-08-05T06:52:16;4.00;;;3.20;;
11588;SDS011;5850;51.360;12.362;2022-08-05T06:55:03;3.60;;;2.90;;
11588;SDS011;5850;51.360;12.362;2022-08-05T06:57:33;6.80;;;4.10;;
11588;SDS011;5850;51.360;12.362;2022-08-05T07:00:21;5.07;;;3.70;;
11588;SDS011;5850;51.360;12.362;2022-08-05T07:02:50;7.37;;;4.60;;
11588;SDS011;5850;51.360;12.362;2022-08-05T07:05:19;7.80;;;5.23;;
11588;SDS011;5850;51.360;12.362;2022-08-05T07:08:02;5.00;;;4.13;;
11588;SDS011;5850;51.360;12.362;2022-08-05T07:10:35;6.90;;;3.73;;
11588;SDS011;5850;51.360;12.362;2022-08-05T07:13:18;5.00;;;3.50;;
11588;SDS011;5850;51.360;12.362;2022-08-05T07:16:24;4.37;;;3.70;;
11588;SDS011;5850;51.360;12.362;2022-08-05T07:19:33;7.63;;;3.23;;
11588;SDS011;5850;51.360;12.362;2022-08-05T07:22:22;4.30;;;3.30;;
11588;SDS011;5850;51.360;12.362;2022-08-05T07:25:01;3.53;;;3.03;;
11588;SDS011;5850;51.360;12.362;2022-08-05T07:27:51;3.47;;;2.83;;
11588;SDS011;5850;51.360;12.362;2022-08-05T07:30:30;6.37;;;3.23;;
11588;SDS011;5850;51.360;12.362;2022-08-05T07:33:04;6.03;;;3.80;;
11588;SDS011;5850;51.360;12.362;2022-08-05T07:35:42;4.60;;;2.87;;
11588;SDS011;5850;51.360;12.362;2022-08-05T07:38:31;4.93;;;3.43;;
11588;SDS011;5850;51.360;12.362;2022-08-05T07:41:09;4.07;;;3.40;;
11588;SDS011;5850;51.360;12.362;2022-08-05T07:44:09;4.70;;;3.23;;
11588;SDS011;5850;51.360;12.362;2022-08-05T07:46:44;9.30;;;6.10;;
11588;SDS011;5850;51.360;12.362;2022-08-05T07:49:15;7.17;;;4.23;;
11588;SDS011;5850;51.360;12.362;2022-08-05T07:51:44;7.17;;;4.70;;
11588;SDS011;5850;51.360;12.362;2022-08-05T07:54:23;6.00;;;3.77;;
11588;SDS011;5850;51.360;12.362;2022-08-05T07:56:58;4.67;;;3.20;;
11588;SDS011;5850;51.360;12.362;2022-08-05T07:59:48;4.17;;;3.53;;
11588;SDS011;5850;51.360;12.362;2022-08-05T08:02:16;5.17;;;3.57;;
11588;SDS011;5850;51.360;12.362;2022-08-05T08:04:56;4.40;;;4.00;;
11588;SDS011;5850;51.360;12.362;2022-08-05T08:07:25;6.80;;;3.77;;
11588;SDS011;5850;51.360;12.362;2022-08-05T08:10:05;5.83;;;3.80;;
11588;SDS011;5850;51.360;12.362;2022-08-05T08:12:34;4.70;;;4.20;;
11588;SDS011;5850;51.360;12.362;2022-08-05T08:15:15;4.63;;;4.17;;
11588;SDS011;5850;51.360;12.362;2022-08-05T08:18:03;8.80;;;7.10;;
11588;SDS011;5850;51.360;12.362;2022-08-05T08:20:39;5.37;;;3.60;;
11588;SDS011;5850;51.360;12.362;2022-08-05T08:23:27;4.20;;;3.00;;
11588;SDS011;5850;51.360;12.362;2022-08-05T08:26:16;6.93;;;2.90;;
11588;SDS011;5850;51.360;12.362;2022-08-05T08:28:55;5.83;;;2.70;;
11588;SDS011;5850;51.360;12.362;2022-08-05T08:31:44;3.47;;;3.13;;
11588;SDS011;5850;51.360;12.362;2022-08-05T08:34:13;3.73;;;2.80;;
11588;SDS011;5850;51.360;12.362;2022-08-05T08:36:55;7.73;;;3.23;;
11588;SDS011;5850;51.360;12.362;2022-08-05T08:39:30;3.40;;;3.10;;
11588;SDS011;5850;51.360;12.362;2022-08-05T08:42:03;10.00;;;5.70;;
11588;SDS011;5850;51.360;12.362;2022-08-05T08:44:52;39.67;;;29.10;;
11588;SDS011;5850;51.360;12.362;2022-08-05T08:47:43;19.50;;;16.60;;
11588;SDS011;5850;51.360;12.362;2022-08-05T08:50:33;6.13;;;5.53;;
11588;SDS011;5850;51.360;12.362;2022-08-05T08:53:26;3.67;;;3.13;;
11588;SDS011;5850;51.360;12.362;2022-08-05T08:55:59;7.60;;;3.70;;
11588;SDS011;5850;51.360;12.362;2022-08-05T08:58:31;4.57;;;2.97;;
11588;SDS011;5850;51.360;12.362;2022-08-05T09:01:13;5.03;;;2.80;;
11588;SDS011;5850;51.360;12.362;2022-08-05T09:03:48;5.33;;;3.07;;
11588;SDS011;5850;51.360;12.362;2022-08-05T09:06:21;3.80;;;3.40;;
11588;SDS011;5850;51.360;12.362;2022-08-05T09:08:54;3.70;;;2.73;;
11588;SDS011;5850;51.360;12.362;2022-08-05T09:11:27;5.70;;;2.97;;
11588;SDS011;5850;51.360;12.362;2022-08-05T09:14:16;3.10;;;2.80;;
11588;SDS011;5850;51.360;12.362;2022-08-05T09:17:08;4.73;;;3.30;;
11588;SDS011;5850;51.360;12.362;2022-08-05T09:19:58;2.70;;;2.47;;
11588;SDS011;5850;51.360;12.362;2022-08-05T09:23:01;4.83;;;3.33;;
11588;SDS011;5850;51.360;12.362;2022-08-05T09:25:47;5.20;;;4.03;;
11588;SDS011;5850;51.360;12.362;2022-08-05T09:28:29;7.27;;;3.27;;
11588;SDS011;5850;51.360;12.362;2022-08-05T09:31:00;9.23;;;3.40;;
11588;SDS011;5850;51.360;12.362;2022-08-05T09:33:55;4.40;;;2.93;;
11588;SDS011;5850;51.360;12.362;2022-08-05T09:36:36;3.60;;;2.40;;
11588;SDS011;5850;51.360;12.362;2022-08-05T09:39:21;6.03;;;3.30;;
11588;SDS011;5850;51.360;12.362;2022-08-05T09:42:10;7.97;;;3.10;;
11588;SDS011;5850;51.360;12.362;2022-08-05T09:44:53;5.23;;;2.90;;
11588;SDS011;5850;51.360;12.362;2022-08-05T09:47:42;4.40;;;2.40;;
11588;SDS011;5850;51.360;12.362;2022-08-05T09:50:32;5.30;;;3.40;;
11588;SDS011;5850;51.360;12.362;2022-08-05T09:53:10;5.40;;;4.50;;
11588;SDS011;5850;51.360;12.362;2022-08-05T09:55:55;5.67;;;3.60;;
11588;SDS011;5850;51.360;12.362;2022-08-05T09:58:38;3.83;;;3.17;;
11588;SDS011;5850;51.360;12.362;2022-08-05T10:01:10;3.77;;;2.50;;
11588;SDS011;5850;51.360;12.362;2022-08-05T10:04:19;3.10;;;2.67;;
11588;SDS011;5850;51.360;12.362;2022-08-05T10:06:55;4.23;;;2.60;;
11588;SDS011;5850;51.360;12.362;2022-08-05T10:09:54;3.93;;;2.73;;
11588;SDS011;5850;51.360;12.362;2022-08-05T10:12:44;3.63;;;2.37;;
11588;SDS011;5850;51.360;12.362;2022-08-05T10:15:22;4.83;;;2.60;;
11588;SDS011;5850;51.360;12.362;2022-08-05T10:18:12;3.17;;;2.30;;
11588;SDS011;5850;51.360;12.362;2022-08-05T10:23:20;3.57;;;3.17;;
11588;SDS011;5850;51.360;12.362;2022-08-05T10:26:14;4.40;;;3.40;;
11588;SDS011;5850;51.360;12.362;2022-08-05T10:28:43;3.27;;;2.93;;
11588;SDS011;5850;51.360;12.362;2022-08-05T10:31:13;4.67;;;3.07;;
11588;SDS011;5850;51.360;12.362;2022-08-05T10:34:03;3.37;;;2.77;;
11588;SDS011;5850;51.360;12.362;2022-08-05T10:36:37;2.97;;;2.77;;
11588;SDS011;5850;51.360;12.362;2022-08-05T10:39:09;3.10;;;2.80;;
11588;SDS011;5850;51.360;12.362;2022-08-05T10:42:11;6.80;;;3.90;;
11588;SDS011;5850;51.360;12.362;2022-08-05T10:44:57;6.10;;;3.50;;
11588;SDS011;5850;51.360;12.362;2022-08-05T10:47:33;3.57;;;3.27;;
11588;SDS011;5850;51.360;12.362;2022-08-05T10:50:21;3.30;;;3.00;;
11588;SDS011;5850;51.360;12.362;2022-08-05T10:53:01;3.77;;;3.00;;
11588;SDS011;5850;51.360;12.362;2022-08-05T10:55:30;3.40;;;2.97;;
11588;SDS011;5850;51.360;12.362;2022-08-05T10:58:19;3.43;;;2.50;;
11588;SDS011;5850;51.360;12.362;2022-08-05T11:01:05;2.80;;;2.60;;
11588;SDS011;5850;51.360;12.362;2022-08-05T11:03:51;3.07;;;2.77;;
11588;SDS011;5850;51.360;12.362;2022-08-05T11:09:27;5.27;;;3.07;;
11588;SDS011;5850;51.360;12.362;2022-08-05T11:12:40;6.10;;;3.40;;
11588;SDS011;5850;51.360;12.362;2022-08-05T11:20:57;5.70;;;3.30;;
11588;SDS011;5850;51.360;12.362;2022-08-05T11:26:08;3.30;;;3.00;;
11588;SDS011;5850;51.360;12.362;2022-08-05T11:28:54;5.23;;;3.37;;
11588;SDS011;5850;51.360;12.362;2022-08-05T11:31:37;5.40;;;3.47;;
11588;SDS011;5850;51.360;12.362;2022-08-05T11:34:33;5.13;;;3.50;;
11588;SDS011;5850;51.360;12.362;2022-08-05T11:40:59;3.60;;;3.30;;
11588;SDS011;5850;51.360;12.362;2022-08-05T11:46:34;5.27;;;3.10;;
11588;SDS011;5850;51.360;12.362;2022-08-05T11:49:34;6.73;;;3.43;;
11588;SDS011;5850;51.360;12.362;2022-08-05T11:52:03;4.37;;;3.70;;
11588;SDS011;5850;51.360;12.362;2022-08-05T11:54:37;3.67;;;2.90;;
11588;SDS011;5850;51.360;12.362;2022-08-05T11:57:08;5.07;;;3.10;;
11588;SDS011;5850;51.360;12.362;2022-08-05T11:59:52;5.63;;;3.13;;
11588;SDS011;5850;51.360;12.362;2022-08-05T12:02:25;8.70;;;3.80;;
11588;SDS011;5850;51.360;12.362;2022-08-05T12:05:00;7.63;;;3.20;;
11588;SDS011;5850;51.360;12.362;2022-08-05T12:07:33;8.73;;;4.37;;
11588;SDS011;5850;51.360;12.362;2022-08-05T12:10:27;4.17;;;3.47;;
11588;SDS011;5850;51.360;12.362;2022-08-05T12:13:15;3.40;;;3.10;;
11588;SDS011;5850;51.360;12.362;2022-08-05T12:16:04;5.23;;;3.13;;
11588;SDS011;5850;51.360;12.362;2022-08-05T12:18:40;3.80;;;2.90;;
11588;SDS011;5850;51.360;12.362;2022-08-05T12:21:22;5.50;;;3.30;;
11588;SDS011;5850;51.360;12.362;2022-08-05T12:24:05;3.90;;;3.13;;
11588;SDS011;5850;51.360;12.362;2022-08-05T12:29:11;4.43;;;2.93;;
11588;SDS011;5850;51.360;12.362;2022-08-05T12:34:21;4.67;;;3.43;;
11588;SDS011;5850;51.360;12.362;2022-08-05T12:36:57;3.93;;;3.57;;
11588;SDS011;5850;51.360;12.362;2022-08-05T12:39:39;3.67;;;2.90;;
11588;SDS011;5850;51.360;12.362;2022-08-05T12:42:12;5.53;;;3.70;;
11588;SDS011;5850;51.360;12.362;2022-08-05T12:44:44;4.07;;;3.23;;
11588;SDS011;5850;51.360;12.362;2022-08-05T12:47:13;5.73;;;3.43;;
11588;SDS011;5850;51.360;12.362;2022-08-05T12:49:56;5.57;;;3.97;;
11588;SDS011;5850;51.360;12.362;2022-08-05T12:52:31;3.43;;;3.13;;
11588;SDS011;5850;51.360;12.362;2022-08-05T12:55:17;5.50;;;3.23;;
11588;SDS011;5850;51.360;12.362;2022-08-05T12:57:54;4.77;;;4.37;;
11588;SDS011;5850;51.360;12.362;2022-08-05T13:00:44;5.63;;;3.50;;
11588;SDS011;5850;51.360;12.362;2022-08-05T13:03:36;5.80;;;3.20;;
11588;SDS011;5850;51.360;12.362;2022-08-05T13:06:11;6.65;;;3.47;;
11588;SDS011;5850;51.360;12.362;2022-08-05T13:08:46;4.60;;;3.70;;
11588;SDS011;5850;51.360;12.362;2022-08-05T13:11:28;4.57;;;3.17;;
11588;SDS011;5850;51.360;12.362;2022-08-05T13:17:02;3.00;;;2.70;;
11588;SDS011;5850;51.360;12.362;2022-08-05T13:20:06;3.72;;;2.85;;
11588;SDS011;5850;51.360;12.362;2022-08-05T13:22:48;6.97;;;3.33;;
11588;SDS011;5850;51.360;12.362;2022-08-05T13:25:18;4.32;;;3.28;;
11588;SDS011;5850;51.360;12.362;2022-08-05T13:28:07;5.65;;;3.60;;
11588;SDS011;5850;51.360;12.362;2022-08-05T13:30:35;9.00;;;4.68;;
11588;SDS011;5850;51.360;12.362;2022-08-05T13:33:04;5.72;;;3.20;;
11588;SDS011;5850;51.360;12.362;2022-08-05T13:35:32;11.27;;;6.35;;
11588;SDS011;5850;51.360;12.362;2022-08-05T13:38:16;4.95;;;3.40;;
11588;SDS011;5850;51.360;12.362;2022-08-05T13:40:59;5.35;;;3.85;;
11588;SDS011;5850;51.360;12.362;2022-08-05T13:43:28;4.78;;;3.47;;
11588;SDS011;5850;51.360;12.362;2022-08-05T13:46:09;4.88;;;3.45;;
11588;SDS011;5850;51.360;12.362;2022-08-05T13:48:38;3.92;;;3.00;;
11588;SDS011;5850;51.360;12.362;2022-08-05T13:51:32;4.68;;;3.08;;
11588;SDS011;5850;51.360;12.362;2022-08-05T13:54:10;3.03;;;2.72;;
11588;SDS011;5850;51.360;12.362;2022-08-05T13:56:41;3.40;;;2.08;;
11588;SDS011;5850;51.360;12.362;2022-08-05T13:59:20;2.88;;;2.20;;
11588;SDS011;5850;51.360;12.362;2022-08-05T14:01:53;2.58;;;1.95;;
11588;SDS011;5850;51.360;12.362;2022-08-05T14:04:35;2.28;;;2.05;;
11588;SDS011;5850;51.360;12.362;2022-08-05T14:07:27;2.88;;;2.30;;
11588;SDS011;5850;51.360;12.362;2022-08-05T14:10:21;3.40;;;2.15;;
11588;SDS011;5850;51.360;12.362;2022-08-05T14:12:54;2.35;;;2.13;;
11588;SDS011;5850;51.360;12.362;2022-08-05T14:15:23;4.05;;;2.30;;
11588;SDS011;5850;51.360;12.362;2022-08-05T14:18:12;4.13;;;2.20;;
11588;SDS011;5850;51.360;12.362;2022-08-05T14:20:48;2.42;;;2.17;;
11588;SDS011;5850;51.360;12.362;2022-08-05T14:23:19;2.63;;;2.15;;
11588;SDS011;5850;51.360;12.362;2022-08-05T14:25:51;4.22;;;2.28;;
11588;SDS011;5850;51.360;12.362;2022-08-05T14:28:25;3.75;;;2.40;;
11588;SDS011;5850;51.360;12.362;2022-08-05T14:30:57;3.22;;;2.20;;
11588;SDS011;5850;51.360;12.362;2022-08-05T14:33:27;6.93;;;3.28;;
11588;SDS011;5850;51.360;12.362;2022-08-05T14:36:16;3.25;;;2.67;;
11588;SDS011;5850;51.360;12.362;2022-08-05T14:38:47;3.05;;;2.30;;
11588;SDS011;5850;51.360;12.362;2022-08-05T14:41:16;2.50;;;2.30;;
11588;SDS011;5850;51.360;12.362;2022-08-05T14:43:46;2.33;;;2.13;;
11588;SDS011;5850;51.360;12.362;2022-08-05T14:46:28;3.20;;;2.40;;
11588;SDS011;5850;51.360;12.362;2022-08-05T14:49:00;4.60;;;3.70;;
11588;SDS011;5850;51.360;12.362;2022-08-05T14:51:36;2.90;;;2.20;;
11588;SDS011;5850;51.360;12.362;2022-08-05T14:54:08;3.00;;;2.70;;
11588;SDS011;5850;51.360;12.362;2022-08-05T14:56:55;2.58;;;2.20;;
11588;SDS011;5850;51.360;12.362;2022-08-05T14:59:24;6.82;;;2.70;;
11588;SDS011;5850;51.360;12.362;2022-08-05T15:01:54;2.63;;;2.30;;
11588;SDS011;5850;51.360;12.362;2022-08-05T15:04:25;3.35;;;3.03;;
11588;SDS011;5850;51.360;12.362;2022-08-05T15:06:54;3.45;;;3.13;;
11588;SDS011;5850;51.360;12.362;2022-08-05T15:09:23;3.47;;;2.83;;
11588;SDS011;5850;51.360;12.362;2022-08-05T15:12:11;2.67;;;2.47;;
11588;SDS011;5850;51.360;12.362;2022-08-05T15:14:42;4.78;;;2.60;;
11588;SDS011;5850;51.360;12.362;2022-08-05T15:17:15;4.17;;;2.33;;
11588;SDS011;5850;51.360;12.362;2022-08-05T15:20:06;4.90;;;2.78;;
11588;SDS011;5850;51.360;12.362;2022-08-05T15:22:44;3.83;;;2.20;;
11588;SDS011;5850;51.360;12.362;2022-08-05T15:25:19;10.23;;;5.57;;
11588;SDS011;5850;51.360;12.362;2022-08-05T15:28:09;15.53;;;7.40;;
11588;SDS011;5850;51.360;12.362;2022-08-05T15:30:40;16.07;;;9.53;;
11588;SDS011;5850;51.360;12.362;2022-08-05T15:33:11;12.53;;;10.40;;
11588;SDS011;5850;51.360;12.362;2022-08-05T15:36:01;19.57;;;12.63;;
11588;SDS011;5850;51.360;12.362;2022-08-05T15:38:41;10.80;;;8.10;;
11588;SDS011;5850;51.360;12.362;2022-08-05T15:41:12;17.50;;;8.80;;
11588;SDS011;5850;51.360;12.362;2022-08-05T15:43:48;11.47;;;8.87;;
11588;SDS011;5850;51.360;12.362;2022-08-05T15:46:20;72.33;;;12.00;;
11588;SDS011;5850;51.360;12.362;2022-08-05T15:48:50;10.10;;;8.53;;
11588;SDS011;5850;51.360;12.362;2022-08-05T15:51:34;15.27;;;10.30;;
11588;SDS011;5850;51.360;12.362;2022-08-05T15:54:23;12.60;;;8.93;;
11588;SDS011;5850;51.360;12.362;2022-08-05T15:57:00;14.00;;;9.97;;
11588;SDS011;5850;51.360;12.362;2022-08-05T15:59:33;12.73;;;9.30;;
11588;SDS011;5850;51.360;12.362;2022-08-05T16:02:03;14.03;;;10.07;;
11588;SDS011;5850;51.360;12.362;2022-08-05T16:04:39;11.57;;;8.93;;
11588;SDS011;5850;51.360;12.362;2022-08-05T16:07:09;13.80;;;10.17;;
11588;SDS011;5850;51.360;12.362;2022-08-05T16:09:38;16.27;;;10.13;;
11588;SDS011;5850;51.360;12.362;2022-08-05T16:12:08;19.23;;;8.77;;
11588;SDS011;5850;51.360;12.362;2022-08-05T16:14:37;39.40;;;9.37;;
11588;SDS011;5850;51.360;12.362;2022-08-05T16:17:05;9.00;;;6.37;;
11588;SDS011;5850;51.360;12.362;2022-08-05T16:19:34;8.93;;;5.53;;
11588;SDS011;5850;51.360;12.362;2022-08-05T16:22:23;5.43;;;4.67;;
11588;SDS011;5850;51.360;12.362;2022-08-05T16:24:59;7.83;;;5.00;;
11588;SDS011;5850;51.360;12.362;2022-08-05T16:27:34;9.13;;;5.40;;
11588;SDS011;5850;51.360;12.362;2022-08-05T16:30:24;8.30;;;6.47;;
11588;SDS011;5850;51.360;12.362;2022-08-05T16:32:57;6.80;;;5.80;;
11588;SDS011;5850;51.360;12.362;2022-08-05T16:35:26;9.90;;;6.23;;